createdAt,value
2022-12-25T00:01:23.519Z,15.03
2022-12-25T00:03:51.248Z,18.13
2022-12-25T00:06:18.959Z,18.63
2022-12-25T00:08:45.641Z,15.63
2022-12-25T00:11:19.475Z,16.97
2022-12-25T00:13:47.090Z,16.77
2022-12-25T00:16:18.053Z,16.40
2022-12-25T00:18:45.402Z,16.63
2022-12-25T00:21:12.710Z,18.47
2022-12-25T00:23:40.047Z,14.40
2022-12-25T00:26:08.718Z,10.73
2022-12-25T00:28:36.020Z,17.43
2022-12-25T00:31:17.225Z,16.33
2022-12-25T00:33:45.775Z,12.43
2022-12-25T00:36:14.071Z,13.17
2022-12-25T00:38:41.271Z,14.00
2022-12-25T00:41:13.041Z,12.83
2022-12-25T00:43:41.888Z,17.47
2022-12-25T00:46:10.319Z,16.73
2022-12-25T00:48:37.179Z,18.63
2022-12-25T00:51:07.440Z,21.60
2022-12-25T00:53:34.083Z,16.13
2022-12-25T00:56:04.731Z,16.83
2022-12-25T00:58:32.707Z,14.33
2022-12-25T01:00:59.729Z,10.50
2022-12-25T01:03:26.664Z,15.83
2022-12-25T01:06:04.007Z,12.90
2022-12-25T01:08:33.957Z,9.60
2022-12-25T01:11:04.420Z,14.40
2022-12-25T01:13:32.234Z,11.33
2022-12-25T01:15:58.897Z,12.30
2022-12-25T01:18:25.897Z,17.67
2022-12-25T01:20:52.540Z,10.23
2022-12-25T01:23:19.154Z,13.77
2022-12-25T01:25:45.792Z,11.60
2022-12-25T01:28:12.855Z,11.37
2022-12-25T01:30:39.765Z,11.07
2022-12-25T01:33:06.368Z,14.67
2022-12-25T01:35:32.961Z,18.27
2022-12-25T01:37:59.583Z,11.53
2022-12-25T01:40:26.221Z,16.80
2022-12-25T01:42:52.825Z,13.13
2022-12-25T01:45:33.741Z,15.13
2022-12-25T01:48:08.282Z,13.67
2022-12-25T01:50:37.897Z,16.87
2022-12-25T01:53:05.506Z,14.40
2022-12-25T01:55:32.960Z,14.77
2022-12-25T01:57:59.605Z,10.20
2022-12-25T02:00:26.274Z,12.93
2022-12-25T02:02:53.046Z,9.70
2022-12-25T02:05:31.959Z,13.50
2022-12-25T02:08:04.089Z,12.53
2022-12-25T02:10:30.707Z,16.03
2022-12-25T02:12:57.664Z,12.03
2022-12-25T02:15:34.152Z,12.90
2022-12-25T02:18:37.278Z,9.60
2022-12-25T02:21:45.767Z,12.73
2022-12-25T02:24:34.245Z,17.90
2022-12-25T02:27:07.309Z,17.00
2022-12-25T02:29:59.806Z,16.73
2022-12-25T02:32:43.084Z,8.60
2022-12-25T02:35:21.888Z,14.50
2022-12-25T02:38:06.118Z,19.73
2022-12-25T02:40:42.041Z,12.33
2022-12-25T02:43:34.365Z,14.00
2022-12-25T02:46:24.544Z,10.63
2022-12-25T02:49:15.839Z,11.17
2022-12-25T02:52:06.970Z,10.33
2022-12-25T02:55:07.378Z,13.10
2022-12-25T02:58:14.910Z,13.20
2022-12-25T03:01:04.424Z,20.60
2022-12-25T03:03:52.995Z,18.50
2022-12-25T03:06:40.840Z,15.93
2022-12-25T03:09:33.376Z,21.63
2022-12-25T03:12:14.278Z,15.43
2022-12-25T03:14:59.604Z,9.63
2022-12-25T03:17:26.557Z,21.13
2022-12-25T03:20:11.634Z,11.40
2022-12-25T03:23:01.105Z,12.00
2022-12-25T03:25:47.134Z,14.17
2022-12-25T03:28:14.269Z,14.20
2022-12-25T03:31:13.047Z,15.93
2022-12-25T03:34:15.303Z,14.63
2022-12-25T03:37:13.493Z,14.53
2022-12-25T03:39:55.172Z,15.83
2022-12-25T03:43:01.805Z,12.50
2022-12-25T03:45:57.757Z,16.87
2022-12-25T03:48:45.167Z,11.37
2022-12-25T03:51:33.926Z,15.60
2022-12-25T03:54:23.239Z,14.87
2022-12-25T03:57:08.841Z,9.50
2022-12-25T03:59:54.342Z,17.03
2022-12-25T04:02:40.217Z,12.37
2022-12-25T04:05:25.770Z,12.17
2022-12-25T04:08:11.186Z,15.50
2022-12-25T04:10:56.395Z,11.67
2022-12-25T04:13:41.799Z,10.53
2022-12-25T04:16:27.455Z,22.27
2022-12-25T04:19:12.547Z,18.40
2022-12-25T04:21:58.082Z,11.70
2022-12-25T04:24:43.314Z,18.07
2022-12-25T04:27:28.776Z,17.33
2022-12-25T04:30:14.191Z,15.23
2022-12-25T04:32:59.697Z,11.13
2022-12-25T04:35:45.657Z,12.17
2022-12-25T04:38:12.269Z,26.30
2022-12-25T04:40:38.871Z,14.37
2022-12-25T04:43:05.502Z,9.77
2022-12-25T04:45:32.132Z,14.03
2022-12-25T04:48:01.663Z,15.47
2022-12-25T04:50:28.284Z,10.33
2022-12-25T04:52:54.924Z,25.07
2022-12-25T04:55:21.690Z,12.80
2022-12-25T04:57:48.472Z,10.20
2022-12-25T05:00:15.440Z,12.17
2022-12-25T05:02:42.218Z,11.13
2022-12-25T05:05:09.107Z,8.13
2022-12-25T05:07:35.708Z,12.97
2022-12-25T05:10:02.339Z,8.93
2022-12-25T05:12:28.942Z,15.77
2022-12-25T05:14:55.533Z,11.03
2022-12-25T05:17:22.156Z,13.90
2022-12-25T05:19:48.750Z,17.87
2022-12-25T05:22:15.417Z,9.73
2022-12-25T05:24:42.034Z,14.30
2022-12-25T05:27:08.644Z,10.50
2022-12-25T05:29:35.264Z,10.93
2022-12-25T05:32:02.171Z,12.90
2022-12-25T05:34:28.783Z,10.80
2022-12-25T05:36:56.516Z,12.37
2022-12-25T05:39:23.499Z,11.73
2022-12-25T05:41:50.270Z,9.60
2022-12-25T05:44:17.135Z,10.30
2022-12-25T05:46:43.873Z,10.70
2022-12-25T05:49:10.529Z,9.80
2022-12-25T05:51:37.215Z,8.53
2022-12-25T05:54:04.106Z,7.33
2022-12-25T05:56:30.712Z,10.53
2022-12-25T05:58:57.316Z,17.00
2022-12-25T06:01:27.512Z,12.23
2022-12-25T06:03:54.492Z,10.20
2022-12-25T06:06:21.167Z,6.77
2022-12-25T06:08:47.780Z,11.23
2022-12-25T06:11:15.566Z,11.97
2022-12-25T06:13:42.385Z,11.70
2022-12-25T06:16:11.255Z,13.73
2022-12-25T06:18:40.877Z,10.70
2022-12-25T06:21:09.264Z,9.27
2022-12-25T06:23:37.344Z,15.57
2022-12-25T06:26:07.149Z,13.40
2022-12-25T06:28:34.141Z,13.73
2022-12-25T06:31:07.418Z,11.90
2022-12-25T06:33:34.113Z,10.07
2022-12-25T06:36:05.377Z,8.60
2022-12-25T06:38:31.993Z,8.70
2022-12-25T06:41:07.156Z,13.13
2022-12-25T06:43:34.233Z,9.20
2022-12-25T06:46:10.268Z,8.43
2022-12-25T06:48:38.793Z,14.63
2022-12-25T06:51:06.900Z,9.33
2022-12-25T06:53:39.825Z,10.90
2022-12-25T06:56:09.962Z,14.10
2022-12-25T06:58:36.572Z,8.63
2022-12-25T07:01:15.048Z,13.73
2022-12-25T07:03:43.895Z,14.17
2022-12-25T07:06:10.579Z,19.90
2022-12-25T07:08:37.344Z,6.80
2022-12-25T07:11:04.298Z,13.47
2022-12-25T07:13:30.896Z,17.33
2022-12-25T07:16:03.068Z,13.10
2022-12-25T07:18:31.169Z,14.27
2022-12-25T07:20:59.630Z,10.00
2022-12-25T07:23:26.972Z,8.47
2022-12-25T07:25:57.652Z,19.23
2022-12-25T07:28:24.812Z,15.90
2022-12-25T07:30:51.689Z,18.17
2022-12-25T07:33:19.111Z,12.70
2022-12-25T07:35:46.426Z,15.63
2022-12-25T07:38:13.141Z,11.37
2022-12-25T07:40:39.759Z,11.07
2022-12-25T07:43:06.402Z,12.43
2022-12-25T07:45:33.657Z,18.53
2022-12-25T07:48:05.260Z,10.93
2022-12-25T07:50:33.258Z,9.70
2022-12-25T07:52:59.953Z,8.67
2022-12-25T07:55:26.612Z,12.03
2022-12-25T07:57:53.305Z,12.20
2022-12-25T08:00:20.617Z,15.30
2022-12-25T08:02:50.399Z,16.23
2022-12-25T08:05:17.489Z,13.13
2022-12-25T08:07:44.152Z,11.87
2022-12-25T08:10:11.169Z,12.93
2022-12-25T08:12:37.769Z,12.27
2022-12-25T08:15:04.846Z,9.20
2022-12-25T08:17:31.522Z,12.00
2022-12-25T08:19:58.123Z,10.33
2022-12-25T08:22:24.731Z,13.40
2022-12-25T08:24:51.351Z,11.00
2022-12-25T08:27:18.191Z,8.67
2022-12-25T08:29:44.965Z,8.93
2022-12-25T08:32:11.794Z,12.33
2022-12-25T08:34:38.785Z,8.30
2022-12-25T08:37:05.446Z,14.90
2022-12-25T08:39:32.281Z,12.03
2022-12-25T08:41:58.888Z,9.10
2022-12-25T08:44:25.527Z,10.03
2022-12-25T08:46:52.146Z,9.53
2022-12-25T08:49:19.246Z,7.13
2022-12-25T08:51:45.961Z,18.67
2022-12-25T08:54:12.558Z,11.40
2022-12-25T08:56:39.217Z,13.17
2022-12-25T08:59:05.848Z,7.03
2022-12-25T09:01:32.524Z,11.67
2022-12-25T09:03:59.253Z,10.80
2022-12-25T09:06:25.849Z,11.57
2022-12-25T09:08:52.544Z,11.20
2022-12-25T09:11:20.271Z,10.43
2022-12-25T09:13:48.189Z,12.87
2022-12-25T09:16:18.725Z,9.23
2022-12-25T09:18:45.572Z,10.60
2022-12-25T09:21:14.277Z,8.30
2022-12-25T09:23:41.325Z,7.60
2022-12-25T09:26:12.425Z,11.93
2022-12-25T09:28:39.199Z,8.77
2022-12-25T09:31:06.275Z,8.97
2022-12-25T09:33:33.365Z,19.20
2022-12-25T09:36:02.592Z,9.83
2022-12-25T09:38:29.806Z,15.17
2022-12-25T09:41:04.983Z,12.60
2022-12-25T09:43:37.450Z,9.43
2022-12-25T09:46:07.415Z,10.00
2022-12-25T09:48:36.932Z,10.10
2022-12-25T09:51:13.274Z,12.83
2022-12-25T09:53:46.649Z,8.97
2022-12-25T09:56:25.368Z,9.40
2022-12-25T09:58:52.953Z,8.50
2022-12-25T10:01:44.619Z,16.67
2022-12-25T10:04:47.628Z,7.87
2022-12-25T10:07:38.323Z,8.90
2022-12-25T10:10:19.982Z,12.53
2022-12-25T10:13:36.967Z,7.03
2022-12-25T10:16:34.294Z,7.70
2022-12-25T10:19:17.482Z,8.93
2022-12-25T10:21:44.582Z,13.37
2022-12-25T10:24:32.829Z,7.60
2022-12-25T10:27:04.503Z,8.83
2022-12-25T10:29:34.708Z,8.70
2022-12-25T10:32:01.457Z,9.70
2022-12-25T10:34:28.774Z,7.33
2022-12-25T10:36:55.660Z,8.77
2022-12-25T10:39:26.518Z,9.90
2022-12-25T10:42:29.497Z,5.30
2022-12-25T10:45:01.674Z,10.47
2022-12-25T10:47:34.468Z,7.57
2022-12-25T10:50:24.102Z,7.17
2022-12-25T10:53:00.999Z,4.90
2022-12-25T10:55:29.493Z,7.30
2022-12-25T10:57:57.721Z,7.53
2022-12-25T11:00:30.624Z,6.63
2022-12-25T11:02:58.190Z,11.23
2022-12-25T11:05:33.527Z,12.03
2022-12-25T11:08:02.178Z,7.73
2022-12-25T11:10:33.988Z,12.50
2022-12-25T11:13:02.431Z,7.83
2022-12-25T11:15:40.290Z,10.07
2022-12-25T11:18:27.777Z,9.00
2022-12-25T11:21:00.122Z,9.93
2022-12-25T11:23:29.031Z,7.53
2022-12-25T11:26:04.468Z,7.50
2022-12-25T11:28:35.025Z,9.67
2022-12-25T11:31:08.296Z,11.17
2022-12-25T11:33:41.297Z,7.33
2022-12-25T11:36:43.105Z,8.60
2022-12-25T11:39:28.326Z,11.30
2022-12-25T11:42:21.530Z,11.33
2022-12-25T11:45:00.204Z,12.00
2022-12-25T11:47:46.996Z,13.40
2022-12-25T11:50:20.124Z,9.50
2022-12-25T11:52:48.029Z,11.03
2022-12-25T11:55:23.825Z,11.60
2022-12-25T11:57:55.030Z,11.47
2022-12-25T12:00:22.040Z,15.97
2022-12-25T12:03:00.168Z,17.73
2022-12-25T12:05:37.296Z,10.80
2022-12-25T12:08:05.542Z,13.73
2022-12-25T12:11:15.650Z,11.50
2022-12-25T12:14:11.418Z,13.20
2022-12-25T12:16:38.384Z,16.23
2022-12-25T12:19:13.899Z,11.80
2022-12-25T12:21:41.404Z,13.50
2022-12-25T12:24:20.522Z,15.20
2022-12-25T12:26:58.867Z,15.53
2022-12-25T12:29:29.113Z,16.20
2022-12-25T12:32:00.599Z,11.03
2022-12-25T12:34:33.016Z,13.53
2022-12-25T12:37:05.010Z,13.83
2022-12-25T12:39:36.394Z,12.77
2022-12-25T12:42:11.918Z,11.63
2022-12-25T12:44:38.734Z,15.23
2022-12-25T12:47:05.399Z,15.97
2022-12-25T12:49:33.549Z,10.70
2022-12-25T12:52:25.115Z,10.87
2022-12-25T12:54:57.003Z,10.83
2022-12-25T12:57:32.509Z,12.17
2022-12-25T13:00:08.551Z,10.57
2022-12-25T13:02:57.877Z,10.97
2022-12-25T13:05:37.917Z,10.87
2022-12-25T13:08:28.152Z,14.27
2022-12-25T13:11:26.561Z,12.67
2022-12-25T13:13:55.204Z,9.40
2022-12-25T13:16:28.004Z,11.33
2022-12-25T13:18:56.481Z,15.00
2022-12-25T13:21:26.136Z,9.97
2022-12-25T13:24:01.092Z,12.43
2022-12-25T13:26:28.741Z,12.90
2022-12-25T13:28:56.167Z,15.27
2022-12-25T13:31:25.917Z,12.90
2022-12-25T13:33:59.942Z,10.50
2022-12-25T13:36:28.529Z,10.60
2022-12-25T13:38:58.756Z,13.17
2022-12-25T13:41:53.142Z,14.50
2022-12-25T13:44:23.500Z,9.87
2022-12-25T13:46:50.310Z,14.93
2022-12-25T13:49:20.407Z,9.43
2022-12-25T13:51:48.363Z,8.90
2022-12-25T13:54:16.475Z,12.33
2022-12-25T13:56:54.283Z,10.60
2022-12-25T13:59:25.603Z,11.37
2022-12-25T14:01:53.982Z,12.00
2022-12-25T14:04:23.440Z,10.70
2022-12-25T14:06:51.780Z,11.43
2022-12-25T14:09:19.211Z,8.70
2022-12-25T14:11:50.150Z,10.03
2022-12-25T14:14:23.002Z,8.77
2022-12-25T14:16:53.234Z,12.17
2022-12-25T14:19:30.153Z,10.30
2022-12-25T14:22:18.770Z,14.80
2022-12-25T14:24:45.568Z,9.97
2022-12-25T14:27:20.288Z,12.83
2022-12-25T14:29:49.299Z,8.50
2022-12-25T14:32:21.970Z,10.30
2022-12-25T14:34:53.727Z,9.13
2022-12-25T14:37:23.733Z,9.97
2022-12-25T14:40:18.391Z,8.63
2022-12-25T14:42:57.965Z,9.90
2022-12-25T14:45:38.650Z,7.40
2022-12-25T14:48:24.600Z,12.03
2022-12-25T14:51:08.647Z,10.00
2022-12-25T14:53:47.329Z,9.60
2022-12-25T14:56:20.071Z,11.20
2022-12-25T14:58:53.568Z,6.27
2022-12-25T15:01:26.920Z,6.77
2022-12-25T15:04:05.359Z,8.70
2022-12-25T15:06:32.511Z,7.73
2022-12-25T15:09:06.355Z,8.47
2022-12-25T15:11:32.991Z,6.60
2022-12-25T15:13:59.648Z,7.53
2022-12-25T15:16:29.551Z,11.13
2022-12-25T15:18:56.581Z,8.13
2022-12-25T15:21:30.192Z,10.87
2022-12-25T15:23:58.851Z,7.80
2022-12-25T15:26:27.386Z,8.93
2022-12-25T15:28:54.057Z,6.40
2022-12-25T15:31:26.425Z,9.20
2022-12-25T15:33:55.245Z,7.43
2022-12-25T15:36:23.263Z,6.30
2022-12-25T15:38:50.268Z,8.67
2022-12-25T15:41:43.542Z,6.10
2022-12-25T15:44:11.820Z,10.43
2022-12-25T15:46:38.828Z,7.80
2022-12-25T15:49:05.635Z,9.90
2022-12-25T15:51:32.376Z,6.97
2022-12-25T15:53:59.515Z,7.67
2022-12-25T15:56:27.264Z,8.70
2022-12-25T15:58:53.944Z,8.10
2022-12-25T16:01:21.111Z,8.00
2022-12-25T16:03:48.108Z,7.63
2022-12-25T16:06:16.462Z,8.40
2022-12-25T16:08:43.454Z,8.00
2022-12-25T16:11:10.632Z,6.60
2022-12-25T16:13:37.539Z,8.13
2022-12-25T16:16:05.028Z,6.83
2022-12-25T16:18:32.080Z,6.40
2022-12-25T16:20:59.596Z,8.20
2022-12-25T16:23:26.392Z,7.50
2022-12-25T16:25:53.095Z,9.80
2022-12-25T16:28:19.757Z,6.63
2022-12-25T16:30:46.578Z,10.00
2022-12-25T16:33:13.346Z,7.27
2022-12-25T16:35:40.011Z,7.90
2022-12-25T16:38:06.920Z,7.03
2022-12-25T16:40:33.910Z,8.70
2022-12-25T16:43:00.552Z,6.63
2022-12-25T16:45:27.204Z,5.93
2022-12-25T16:47:53.892Z,9.97
2022-12-25T16:50:20.669Z,10.30
2022-12-25T16:52:47.294Z,5.73
2022-12-25T16:55:13.984Z,6.67
2022-12-25T16:57:40.585Z,6.10
2022-12-25T17:00:08.622Z,9.20
2022-12-25T17:02:35.336Z,8.17
2022-12-25T17:05:02.245Z,9.63
2022-12-25T17:07:28.852Z,8.00
2022-12-25T17:09:57.055Z,8.10
2022-12-25T17:12:23.725Z,6.73
2022-12-25T17:14:50.716Z,7.63
2022-12-25T17:17:18.446Z,7.13
2022-12-25T17:19:45.175Z,10.10
2022-12-25T17:22:11.909Z,6.30
2022-12-25T17:24:40.906Z,6.70
2022-12-25T17:27:09.137Z,6.80
2022-12-25T17:29:38.875Z,8.37
2022-12-25T17:32:07.841Z,7.77
2022-12-25T17:34:34.680Z,5.50
2022-12-25T17:37:01.321Z,6.67
2022-12-25T17:39:28.174Z,5.20
2022-12-25T17:41:55.079Z,5.77
2022-12-25T17:44:22.311Z,5.67
2022-12-25T17:46:49.799Z,8.00
2022-12-25T17:49:19.593Z,8.27
2022-12-25T17:51:46.865Z,6.47
2022-12-25T17:54:13.703Z,5.60
2022-12-25T17:56:40.373Z,6.53
2022-12-25T17:59:09.481Z,5.13
2022-12-25T18:01:38.500Z,7.13
2022-12-25T18:04:06.122Z,6.33
2022-12-25T18:06:35.669Z,7.17
2022-12-25T18:09:03.118Z,6.07
2022-12-25T18:11:32.983Z,6.10
2022-12-25T18:14:05.474Z,6.70
2022-12-25T18:16:35.252Z,6.47
2022-12-25T18:19:02.413Z,6.50
2022-12-25T18:21:29.620Z,5.03
2022-12-25T18:23:56.234Z,5.47
2022-12-25T18:26:23.264Z,5.90
2022-12-25T18:28:50.288Z,7.00
2022-12-25T18:31:22.052Z,6.33
2022-12-25T18:33:49.363Z,6.00
2022-12-25T18:36:20.006Z,8.10
2022-12-25T18:38:48.181Z,7.60
2022-12-25T18:41:15.145Z,5.30
2022-12-25T18:43:52.840Z,5.33
2022-12-25T18:46:22.299Z,8.30
2022-12-25T18:48:49.330Z,6.70
2022-12-25T18:51:15.990Z,8.77
2022-12-25T18:53:42.792Z,7.70
2022-12-25T18:56:12.464Z,7.30
2022-12-25T18:58:39.347Z,7.20
2022-12-25T19:01:17.377Z,8.10
2022-12-25T19:03:45.350Z,5.97
2022-12-25T19:06:20.208Z,7.43
2022-12-25T19:08:47.080Z,4.80
2022-12-25T19:11:14.233Z,8.40
2022-12-25T19:13:41.108Z,7.00
2022-12-25T19:16:07.984Z,8.60
2022-12-25T19:18:34.658Z,10.70
2022-12-25T19:21:02.918Z,7.07
2022-12-25T19:23:29.617Z,7.90
2022-12-25T19:25:56.330Z,8.53
2022-12-25T19:28:24.876Z,7.50
2022-12-25T19:30:53.794Z,5.80
2022-12-25T19:33:22.891Z,5.87
2022-12-25T19:35:49.963Z,7.10
2022-12-25T19:38:16.600Z,10.60
2022-12-25T19:40:59.921Z,8.37
2022-12-25T19:43:32.572Z,6.00
2022-12-25T19:46:00.313Z,5.80
2022-12-25T19:48:27.288Z,6.33
2022-12-25T19:50:54.635Z,6.10
2022-12-25T19:53:23.620Z,8.30
2022-12-25T19:55:52.366Z,7.47
2022-12-25T19:58:23.545Z,7.90
2022-12-25T20:01:01.342Z,5.97
2022-12-25T20:03:28.432Z,6.97
2022-12-25T20:05:56.422Z,6.60
2022-12-25T20:08:25.355Z,6.53
2022-12-25T20:10:52.402Z,7.70
2022-12-25T20:13:19.483Z,7.80
2022-12-25T20:15:46.832Z,8.33
2022-12-25T20:18:13.710Z,5.50
2022-12-25T20:20:40.361Z,6.20
2022-12-25T20:23:06.979Z,5.77
2022-12-25T20:25:33.584Z,8.80
2022-12-25T20:28:00.186Z,6.63
2022-12-25T20:30:26.791Z,5.70
2022-12-25T20:32:53.450Z,6.13
2022-12-25T20:35:20.082Z,4.97
2022-12-25T20:37:46.762Z,6.80
2022-12-25T20:40:13.517Z,6.50
2022-12-25T20:42:40.146Z,6.60
2022-12-25T20:45:07.512Z,6.10
2022-12-25T20:47:35.140Z,6.07
2022-12-25T20:50:02.250Z,6.17
2022-12-25T20:52:28.884Z,7.00
2022-12-25T20:54:55.643Z,5.60
2022-12-25T20:57:22.521Z,7.93
2022-12-25T20:59:49.483Z,5.73
2022-12-25T21:02:34.709Z,6.30
2022-12-25T21:05:03.964Z,5.80
2022-12-25T21:07:30.669Z,5.80
2022-12-25T21:09:57.285Z,5.43
2022-12-25T21:12:23.889Z,10.57
2022-12-25T21:14:50.624Z,8.20
2022-12-25T21:17:17.755Z,5.77
2022-12-25T21:19:44.422Z,6.30
2022-12-25T21:22:11.049Z,7.00
2022-12-25T21:24:37.717Z,8.83
2022-12-25T21:27:04.370Z,4.37
2022-12-25T21:29:31.083Z,8.00
2022-12-25T21:32:16.281Z,6.80
2022-12-25T21:34:42.904Z,4.97
2022-12-25T21:37:09.529Z,6.57
2022-12-25T21:39:36.135Z,4.93
2022-12-25T21:42:04.474Z,5.70
2022-12-25T21:44:31.285Z,4.37
2022-12-25T21:46:58.110Z,5.80
2022-12-25T21:49:43.650Z,5.20
2022-12-25T21:52:10.812Z,6.10
2022-12-25T21:54:37.688Z,6.40
2022-12-25T21:57:05.255Z,4.33
2022-12-25T21:59:31.868Z,5.83
2022-12-25T22:01:59.433Z,7.23
2022-12-25T22:04:26.491Z,6.80
2022-12-25T22:07:11.645Z,4.67
2022-12-25T22:09:38.271Z,5.60
2022-12-25T22:12:27.375Z,5.27
2022-12-25T22:15:03.010Z,4.53
2022-12-25T22:17:51.156Z,5.37
2022-12-25T22:20:30.618Z,5.10
2022-12-25T22:22:58.022Z,4.93
2022-12-25T22:25:24.781Z,6.03
2022-12-25T22:27:51.939Z,4.10
2022-12-25T22:30:21.363Z,6.83
2022-12-25T22:32:48.665Z,3.40
2022-12-25T22:35:16.208Z,4.53
2022-12-25T22:37:43.818Z,5.13
2022-12-25T22:40:16.410Z,7.83
2022-12-25T22:42:43.603Z,3.30
2022-12-25T22:45:11.431Z,4.70
2022-12-25T22:47:38.510Z,4.53
2022-12-25T22:50:06.755Z,3.77
2022-12-25T22:52:33.635Z,5.17
2022-12-25T22:55:00.337Z,5.00
2022-12-25T22:57:26.971Z,6.33
2022-12-25T22:59:53.855Z,3.60
2022-12-25T23:02:20.955Z,7.90
2022-12-25T23:04:47.877Z,5.83
2022-12-25T23:07:15.454Z,5.63
2022-12-25T23:09:43.118Z,7.10
2022-12-25T23:12:29.879Z,5.70
2022-12-25T23:14:57.537Z,4.07
2022-12-25T23:17:43.318Z,4.03
2022-12-25T23:20:28.817Z,5.10
2022-12-25T23:23:14.234Z,5.40
2022-12-25T23:25:59.597Z,4.50
2022-12-25T23:28:45.042Z,4.93
2022-12-25T23:31:11.725Z,6.47
2022-12-25T23:33:38.404Z,3.30
2022-12-25T23:36:05.619Z,4.50
2022-12-25T23:38:32.215Z,5.63
2022-12-25T23:40:58.897Z,4.80
2022-12-25T23:43:25.795Z,3.50
2022-12-25T23:45:52.757Z,4.97
2022-12-25T23:48:19.390Z,4.20
2022-12-25T23:50:46.009Z,4.30
2022-12-25T23:53:12.878Z,5.23
2022-12-25T23:55:42.007Z,6.07
2022-12-25T23:58:08.815Z,4.03
